Huvudsida
METAR-TAF:

METAR-TAF

Flygplatser :

Beirut Air Base

Beirut, Libanon

latitud: 33-49N, longitud: 035-29E, höjd: 29 m

Aktuellt väderrapport

Denna rapport gjordes för 49 minuter sedan, klockan 01:00 UTC
Vind 3 kt från ost/sydost, varierande mellan ost/nordost och syd
Temperatur 13°C
Fuktighet 82%
Tryck 1016 hPa
Sikt: 8000 m
Spridda moln på en höjd av 2600 ft
lätt regn

METAR: OLBA 190100Z 11003KT 060V180 8000 -RA SCT026 13/10 Q1016 NOSIG

Tid: 03:49 (01:49 UTC)

Väderprognos

Denna rapport gjordes för 3 timmar och 49 minuter sedan, klockan 22:00 UTC
Prognos gäller från 19 kl. 00 UTC till 20 kl. 06 UTC
Vind 13 kt från syd/sydväst
Sikt: 7000 m
Brutna moln på en höjd av 3000 ft
Temporärt
från 19 kl. 00 UTC till 20 kl. 06 UTC
Sikt: 3000 m
Få moln på en höjd av 2000 ft, Cumulonimbus.
Brutna moln på en höjd av 2200 ft
åska, regn

TAF: OLBA 182200Z 1900/2006 20013KT 7000 BKN030 TEMPO 1900/2006 3000 TSRA FEW020CB BKN022

Aktuella väderrapporter och prognoser från 4000 flygplatser (METAR- och TAF-rapporter).

De tillgängliga stationerna syns som gula och röda prickar på kartan.

För musen över prickarna för att se namnen på stationerna.

Klicka sedan för att få väderrapporter och prognoser.

För att ändra kartan: Klicka på de gröna knapparna med ett svart kors på för att zooma in; den gröna knappen med ett streck på för att zooma ut; eller på de gröna pilarna för angränsande kartor.


METAR-TAF: